map of 9A5 home
9A5 - Airport
Location
City:  Lafayette, Georgia, United States
Name:Barwick Lafayette Airport
FAA LID:9A5

Details
Type:Airport (Airfield)
Use:Public/Civil
Latitude:3441'19"N (34.688500)
Longitude:8517'25"W (-85.290305)
Datum:WGS 1984
Elevation:776 ft (237 m)
Variation:4.73W (WMM2015 magnetic declination)
-0.08 annual change
Runways:1
Longest:5350 × 75 ft (1631 × 23 m), paved

Time
Time Zone:UTC-5 (DST-4)
Local Time:

Weather
METAR:K9A5 181955Z AUTO 00000KT 10SM OVC013 11/09 A3008 RMK AO2 T01110086

Related Locations
Nearby:
Farthest:YAUG: 11279 mi / 18152 km
Augusta [Augusta Airport], WA, AU

Find:

   beyond  
but within

Other Information
Maps:
NOTAMs:
Links:
Sources:

  
  • flag of United States
  • flag of Georgia
  

Sectional Chart

Flight Planning
at skyvector.com

Satellite Image

Google Maps Satellite view

 

Copyright © 2004-2019 Karl L. Swartz. All rights reserved.
The Great Circle Mapper name and logo are trademarks of the Great Circle Mapper.
All other trademarks mentioned herein belong to their respective owners.
Please see credits for attibutions and further copyright information.

  Follow gcmap on Facebook Follow gcmap on Twitter Follow gcmap on Google+ GCmap on LinkedIn

hCard Microformat

Geo Microformat